Time;durP1;ratioP1;P1;durP2;ratioP2;P2;SDS_P1;SDS_P2;PMS_P1;PMS_P2;Temp;Humidity;BMP_temperature;BMP_pressure;BME280_temperature;BME280_humidity;BME280_pressure;Samples;Min_cycle;Max_cycle;Signal;HPM_P1;HPM_P2
2022/09/27 00:00:29;;;;;;;9.40;3.10;;;11.60;99.90;;;;;;5062634;28;20486;-81
2022/09/27 00:02:56;;;;;;;5.57;3.00;;;11.60;99.90;;;;;;5079156;28;20522;-82
2022/09/27 00:05:24;;;;;;;6.73;1.97;;;11.60;99.90;;;;;;5067585;28;20483;-83
2022/09/27 00:07:51;;;;;;;8.20;2.60;;;11.60;99.90;;;;;;5074542;28;20507;-82
2022/09/27 00:10:19;;;;;;;5.23;2.40;;;11.60;99.90;;;;;;5080718;28;20882;-82
2022/09/27 00:12:47;;;;;;;6.60;2.37;;;11.50;99.90;;;;;;5079486;28;20453;-80
2022/09/27 00:15:14;;;;;;;5.73;2.90;;;11.50;99.90;;;;;;5079805;28;20447;-81
2022/09/27 00:17:41;;;;;;;5.40;2.60;;;11.50;99.90;;;;;;5079763;28;20495;-81
2022/09/27 00:20:09;;;;;;;5.17;2.33;;;11.40;99.90;;;;;;5075966;28;20487;-81
2022/09/27 00:22:37;;;;;;;7.50;2.30;;;11.40;99.90;;;;;;5080272;28;20476;-80
2022/09/27 00:25:06;;;;;;;9.70;2.47;;;11.40;99.90;;;;;;5076317;28;20483;-80
2022/09/27 00:27:34;;;;;;;9.47;3.87;;;11.30;99.90;;;;;;5076462;28;20829;-80
2022/09/27 00:30:01;;;;;;;5.50;3.23;;;11.40;99.90;;;;;;5075786;28;20494;-80
2022/09/27 00:32:28;;;;;;;9.17;4.10;;;11.30;99.90;;;;;;5075181;28;20516;-80
2022/09/27 00:34:55;;;;;;;7.07;3.43;;;11.30;99.90;;;;;;5076674;28;20482;-81
2022/09/27 00:37:22;;;;;;;9.20;4.00;;;11.30;99.90;;;;;;5077983;28;20493;-80
2022/09/27 00:39:49;;;;;;;7.57;4.70;;;11.20;99.90;;;;;;5076490;28;20497;-82
2022/09/27 00:42:16;;;;;;;6.97;3.87;;;11.20;99.90;;;;;;5076478;28;20517;-81
2022/09/27 00:45:07;;;;;;;5.53;3.60;;;11.20;99.90;;;;;;5073901;28;20998;-80
2022/09/27 00:47:40;;;;;;;8.20;3.13;;;11.20;99.90;;;;;;5072596;28;20911;-81
2022/09/27 00:50:14;;;;;;;4.83;2.47;;;11.20;99.90;;;;;;5074806;28;20463;-81
2022/09/27 00:52:46;;;;;;;6.40;2.90;;;11.20;99.90;;;;;;5075121;28;20482;-79
2022/09/27 00:55:17;;;;;;;5.40;2.47;;;11.10;99.90;;;;;;5075117;28;20457;-81
2022/09/27 00:57:45;;;;;;;7.47;2.83;;;11.10;99.90;;;;;;5076130;28;20516;-81
2022/09/27 01:00:15;;;;;;;6.87;3.10;;;11.10;99.90;;;;;;5076939;28;20489;-80
2022/09/27 01:02:46;;;;;;;8.90;3.50;;;11.00;99.90;;;;;;5076103;28;20514;-80
2022/09/27 01:05:16;;;;;;;8.50;4.30;;;11.10;99.90;;;;;;5072978;28;20620;-80
2022/09/27 01:07:43;;;;;;;6.10;4.07;;;11.00;99.90;;;;;;5076957;28;20506;-80
2022/09/27 01:10:11;;;;;;;8.20;4.20;;;11.00;99.90;;;;;;5074266;28;20452;-80
2022/09/27 01:12:48;;;;;;;7.70;4.43;;;11.10;99.90;;;;;;5075857;28;21021;-81
2022/09/27 01:15:25;;;;;;;7.87;4.77;;;11.10;99.90;;;;;;5075285;28;20457;-80
2022/09/27 01:18:05;;;;;;;7.80;4.83;;;11.00;99.90;;;;;;5071625;28;21193;-81
2022/09/27 01:21:12;;;;;;;5.73;3.90;;;11.10;99.90;;;;;;5075906;28;20471;-80
2022/09/27 01:23:54;;;;;;;8.03;4.17;;;11.00;99.90;;;;;;5075493;28;21062;-80
2022/09/27 01:26:40;;;;;;;4.77;3.30;;;11.00;99.90;;;;;;5075513;28;20479;-81
2022/09/27 01:29:11;;;;;;;7.30;4.10;;;11.10;99.90;;;;;;5073737;28;20474;-79
2022/09/27 01:31:47;;;;;;;6.13;3.50;;;11.00;99.90;;;;;;5076716;28;20471;-79
2022/09/27 01:34:22;;;;;;;12.00;5.10;;;11.10;99.90;;;;;;5075338;28;20489;-79
2022/09/27 01:36:56;;;;;;;11.20;4.70;;;11.10;99.90;;;;;;5074718;28;20439;-79
2022/09/27 01:39:37;;;;;;;6.20;4.67;;;11.10;99.90;;;;;;5076452;28;20536;-80
2022/09/27 01:42:12;;;;;;;5.57;4.30;;;11.00;99.90;;;;;;5074351;28;20475;-80
2022/09/27 01:44:44;;;;;;;11.73;5.27;;;11.00;99.90;;;;;;5076622;28;20470;-79
2022/09/27 01:47:18;;;;;;;4.60;4.10;;;11.00;99.90;;;;;;5075963;28;20965;-81
2022/09/27 01:49:50;;;;;;;10.13;4.60;;;11.10;99.90;;;;;;5076506;28;20478;-79
2022/09/27 01:52:22;;;;;;;7.80;4.90;;;11.10;99.90;;;;;;5075338;28;20814;-80
2022/09/27 01:54:54;;;;;;;10.50;5.90;;;11.00;99.90;;;;;;5076359;28;20482;-80
2022/09/27 01:57:25;;;;;;;11.83;6.33;;;11.00;99.90;;;;;;5074646;28;20477;-79
2022/09/27 01:59:56;;;;;;;6.57;4.70;;;11.10;99.90;;;;;;5076255;28;20495;-81
2022/09/27 02:02:27;;;;;;;17.47;6.47;;;11.00;99.90;;;;;;5074674;28;20504;-80
2022/09/27 02:04:59;;;;;;;10.77;6.83;;;11.00;99.90;;;;;;5075790;28;20447;-80
2022/09/27 02:07:31;;;;;;;8.43;5.70;;;11.10;99.90;;;;;;5075012;28;20893;-79
2022/09/27 02:10:02;;;;;;;10.33;6.10;;;11.10;99.90;;;;;;5074772;28;20878;-82
2022/09/27 02:12:35;;;;;;;14.67;7.80;;;11.00;99.90;;;;;;5073583;28;20474;-80
2022/09/27 02:15:07;;;;;;;8.73;6.60;;;11.00;99.90;;;;;;5074390;28;20885;-80
2022/09/27 02:17:44;;;;;;;7.40;6.23;;;11.00;99.90;;;;;;5075209;28;20479;-80
2022/09/27 02:20:16;;;;;;;7.50;6.50;;;11.10;99.90;;;;;;5075129;28;20478;-80
2022/09/27 02:22:47;;;;;;;9.20;6.90;;;11.10;99.90;;;;;;5073811;28;20472;-80
2022/09/27 02:25:20;;;;;;;8.57;5.83;;;11.00;99.90;;;;;;5074682;28;20494;-81
2022/09/27 02:27:55;;;;;;;11.03;5.70;;;11.00;99.90;;;;;;5070924;28;20497;-81
2022/09/27 02:30:22;;;;;;;11.40;6.43;;;10.90;99.90;;;;;;5075275;28;20949;-80
2022/09/27 02:32:51;;;;;;;9.27;6.20;;;11.00;99.90;;;;;;5074623;28;20553;-81
2022/09/27 02:35:21;;;;;;;8.70;6.20;;;11.00;99.90;;;;;;5075775;28;20546;-80
2022/09/27 02:37:49;;;;;;;9.67;5.80;;;11.00;99.90;;;;;;5077589;28;20498;-81
2022/09/27 02:40:16;;;;;;;5.37;4.77;;;11.10;99.90;;;;;;5080456;28;20482;-81
2022/09/27 02:42:44;;;;;;;5.03;4.50;;;11.10;99.90;;;;;;5079596;28;20506;-80
2022/09/27 02:45:14;;;;;;;8.53;5.20;;;11.10;99.90;;;;;;5078668;28;20476;-81
2022/09/27 02:47:54;;;;;;;6.03;5.43;;;11.10;99.90;;;;;;5079517;28;20509;-82
2022/09/27 02:50:42;;;;;;;8.70;4.73;;;11.00;99.90;;;;;;5079741;28;20442;-80
2022/09/27 02:53:17;;;;;;;7.63;4.53;;;11.00;99.90;;;;;;5077400;28;20530;-82
2022/09/27 02:55:51;;;;;;;9.77;5.23;;;11.10;99.90;;;;;;5079699;28;20442;-80
2022/09/27 02:58:31;;;;;;;8.47;5.47;;;11.00;99.90;;;;;;5076127;28;20530;-80
2022/09/27 03:01:06;;;;;;;9.10;6.37;;;11.00;99.90;;;;;;5074432;28;20448;-81
2022/09/27 03:03:43;;;;;;;11.17;6.07;;;11.00;99.90;;;;;;5078604;28;20521;-81
2022/09/27 03:06:13;;;;;;;12.60;5.50;;;11.00;99.90;;;;;;5079297;28;20467;-81
2022/09/27 03:08:40;;;;;;;6.70;4.80;;;11.00;99.90;;;;;;5080639;28;20501;-80
2022/09/27 03:11:08;;;;;;;7.27;4.90;;;11.10;99.90;;;;;;5077741;28;20459;-81
2022/09/27 03:13:37;;;;;;;9.73;5.07;;;11.00;99.90;;;;;;5080010;28;20451;-81
2022/09/27 03:16:05;;;;;;;9.40;5.23;;;11.00;99.90;;;;;;5083064;28;20825;-81
2022/09/27 03:18:32;;;;;;;14.07;5.57;;;10.90;99.90;;;;;;5081145;28;20483;-81
2022/09/27 03:21:01;;;;;;;5.93;4.63;;;10.90;99.90;;;;;;5076677;28;20454;-81
2022/09/27 03:23:28;;;;;;;7.57;5.40;;;11.00;99.90;;;;;;5077198;28;20513;-80
2022/09/27 03:25:55;;;;;;;14.90;6.47;;;11.00;99.90;;;;;;5078023;28;20451;-80
2022/09/27 03:28:22;;;;;;;12.33;5.50;;;10.90;99.90;;;;;;5078632;28;20509;-79
2022/09/27 03:30:49;;;;;;;10.80;4.20;;;10.90;99.90;;;;;;5078194;28;20486;-80
2022/09/27 03:33:15;;;;;;;5.90;4.40;;;10.90;99.90;;;;;;5077630;28;20478;-79
2022/09/27 03:35:43;;;;;;;7.17;4.40;;;10.90;99.90;;;;;;5078090;28;20462;-80
2022/09/27 03:38:11;;;;;;;7.70;4.70;;;10.90;99.90;;;;;;5078587;28;21155;-80
2022/09/27 03:40:38;;;;;;;6.53;4.10;;;10.80;99.90;;;;;;5077829;28;20459;-80
2022/09/27 03:43:05;;;;;;;4.50;3.20;;;10.80;99.90;;;;;;5076565;28;20519;-81
2022/09/27 03:45:32;;;;;;;7.33;4.07;;;10.80;99.90;;;;;;5077083;28;20482;-80
2022/09/27 03:47:59;;;;;;;4.57;3.67;;;10.80;99.90;;;;;;5076167;28;20515;-81
2022/09/27 03:50:26;;;;;;;6.27;3.43;;;10.80;99.90;;;;;;5072900;28;20480;-79
2022/09/27 03:52:53;;;;;;;7.30;3.90;;;10.70;99.90;;;;;;5076507;28;20472;-80
2022/09/27 03:55:22;;;;;;;4.93;3.07;;;10.70;99.90;;;;;;5074779;28;20458;-80
2022/09/27 03:57:48;;;;;;;5.83;3.20;;;10.70;99.90;;;;;;5068108;28;20864;-81
2022/09/27 04:00:16;;;;;;;5.30;3.10;;;10.70;99.90;;;;;;5070818;28;20501;-80
2022/09/27 04:02:43;;;;;;;3.93;2.80;;;10.70;99.90;;;;;;5074151;28;20489;-80
2022/09/27 04:05:10;;;;;;;6.63;2.77;;;10.70;99.90;;;;;;5076288;28;20487;-80
2022/09/27 04:07:38;;;;;;;3.97;3.27;;;10.60;99.90;;;;;;5076728;28;20502;-83
2022/09/27 04:10:06;;;;;;;6.00;3.63;;;10.60;99.90;;;;;;5068433;28;20528;-80
2022/09/27 04:12:34;;;;;;;10.13;3.20;;;10.60;99.90;;;;;;5070360;28;20473;-81
2022/09/27 04:15:01;;;;;;;12.00;5.47;;;10.60;99.90;;;;;;5072005;28;20561;-80
2022/09/27 04:17:28;;;;;;;7.97;5.13;;;10.60;99.90;;;;;;5074571;28;20502;-81
2022/09/27 04:19:55;;;;;;;10.00;6.37;;;10.70;99.90;;;;;;5067145;28;20456;-79
2022/09/27 04:22:22;;;;;;;12.47;8.30;;;10.70;99.90;;;;;;5074706;28;20478;-81
2022/09/27 04:24:49;;;;;;;12.33;8.63;;;10.60;99.90;;;;;;5076040;28;20447;-79
2022/09/27 04:27:16;;;;;;;14.80;10.57;;;10.70;99.90;;;;;;5077782;28;20458;-79
2022/09/27 04:29:45;;;;;;;13.83;9.90;;;10.70;99.90;;;;;;5076899;28;20482;-79
2022/09/27 04:32:12;;;;;;;16.23;9.50;;;10.80;99.90;;;;;;5075992;28;20966;-81
2022/09/27 04:37:24;;;;;;;17.10;9.77;;;10.90;99.90;;;;;;5077202;28;20481;-83
2022/09/27 04:39:51;;;;;;;18.57;11.83;;;10.90;99.90;;;;;;5076407;28;20448;-82
2022/09/27 04:42:19;;;;;;;15.80;12.07;;;10.90;99.90;;;;;;5076191;28;20474;-81
2022/09/27 04:44:47;;;;;;;14.30;10.50;;;10.90;99.90;;;;;;5074771;28;20523;-80
2022/09/27 04:47:14;;;;;;;12.97;9.77;;;10.90;99.90;;;;;;5075863;28;20490;-80
2022/09/27 04:49:41;;;;;;;16.63;10.00;;;10.80;99.90;;;;;;5074815;28;20478;-79
2022/09/27 04:52:08;;;;;;;14.00;10.57;;;10.90;99.90;;;;;;5075115;28;20504;-80
2022/09/27 04:54:35;;;;;;;10.53;8.53;;;10.80;99.90;;;;;;5073677;28;20482;-80
2022/09/27 04:57:02;;;;;;;8.80;7.60;;;10.80;99.90;;;;;;5074682;28;20476;-78
2022/09/27 04:59:29;;;;;;;11.70;9.63;;;10.80;99.90;;;;;;5073761;28;20539;-79
2022/09/27 05:01:59;;;;;;;11.73;8.73;;;10.90;99.90;;;;;;5074040;28;20476;-80
2022/09/27 05:04:26;;;;;;;12.17;9.30;;;10.80;99.90;;;;;;5074772;28;20560;-80
2022/09/27 05:06:53;;;;;;;11.27;9.10;;;10.70;99.90;;;;;;5075578;28;20497;-79
2022/09/27 05:09:20;;;;;;;11.73;9.00;;;10.60;99.90;;;;;;5075311;28;21002;-80
2022/09/27 05:11:47;;;;;;;14.60;10.30;;;10.60;99.90;;;;;;5075240;28;20492;-80
2022/09/27 05:14:14;;;;;;;17.33;10.10;;;10.50;99.90;;;;;;5074335;28;20795;-80
2022/09/27 05:16:42;;;;;;;15.30;11.13;;;10.50;99.90;;;;;;5076878;28;20449;-80
2022/09/27 05:19:10;;;;;;;13.00;8.60;;;10.40;99.90;;;;;;5076018;28;20933;-80
2022/09/27 05:21:37;;;;;;;11.90;7.70;;;10.40;99.90;;;;;;5076044;28;20479;-80
2022/09/27 05:24:04;;;;;;;13.20;9.50;;;10.50;99.90;;;;;;5074178;28;20935;-80
2022/09/27 05:26:31;;;;;;;13.80;8.00;;;10.40;99.90;;;;;;5076072;28;20486;-80
2022/09/27 05:28:58;;;;;;;9.90;7.73;;;10.50;99.90;;;;;;5074323;28;20508;-80
2022/09/27 05:31:25;;;;;;;11.50;8.10;;;10.40;99.90;;;;;;5074748;28;20480;-80
2022/09/27 05:33:52;;;;;;;11.20;7.03;;;10.50;99.90;;;;;;5074532;28;20450;-80
2022/09/27 05:36:22;;;;;;;9.17;7.10;;;10.40;99.90;;;;;;5074491;28;20887;-80
2022/09/27 05:38:49;;;;;;;21.83;6.00;;;10.50;99.90;;;;;;5075054;28;20561;-81
2022/09/27 05:41:16;;;;;;;10.27;6.73;;;10.50;99.90;;;;;;5074407;28;20454;-79
2022/09/27 05:43:45;;;;;;;6.87;4.70;;;10.40;99.90;;;;;;5071967;28;20519;-79
2022/09/27 05:46:12;;;;;;;8.53;5.40;;;10.50;99.90;;;;;;5071564;28;20489;-78
2022/09/27 05:48:39;;;;;;;9.47;5.23;;;10.50;99.90;;;;;;5071415;28;20509;-77
2022/09/27 05:51:06;;;;;;;8.03;5.33;;;10.50;99.90;;;;;;5072367;28;20895;-79
2022/09/27 05:53:35;;;;;;;6.30;4.90;;;10.60;99.90;;;;;;5069969;28;20471;-80
2022/09/27 05:56:03;;;;;;;8.40;4.63;;;10.50;99.90;;;;;;5072099;28;20453;-78
2022/09/27 05:58:31;;;;;;;8.87;4.67;;;10.40;99.90;;;;;;5072555;28;20916;-80
2022/09/27 06:00:58;;;;;;;4.80;3.33;;;10.40;99.90;;;;;;5072249;28;20487;-79
2022/09/27 06:03:25;;;;;;;8.93;4.53;;;10.40;99.90;;;;;;5071967;28;20539;-78
2022/09/27 06:05:52;;;;;;;5.50;3.80;;;10.50;99.90;;;;;;5072638;28;20485;-78
2022/09/27 06:08:22;;;;;;;6.90;3.80;;;10.50;99.90;;;;;;5071646;28;20479;-77
2022/09/27 06:11:02;;;;;;;8.90;4.57;;;10.40;99.90;;;;;;5052762;28;20800;-77
2022/09/27 06:13:33;;;;;;;6.33;3.40;;;10.40;99.90;;;;;;5074953;28;20962;-80
2022/09/27 06:16:00;;;;;;;7.40;4.03;;;10.40;99.90;;;;;;5079125;28;20578;-77
2022/09/27 06:18:29;;;;;;;5.50;3.77;;;10.40;99.90;;;;;;5077811;28;21060;-78
2022/09/27 06:20:58;;;;;;;4.80;3.57;;;10.40;99.90;;;;;;5078272;28;20460;-78
2022/09/27 06:23:25;;;;;;;8.17;3.50;;;10.50;99.90;;;;;;5062746;28;20513;-78
2022/09/27 06:25:54;;;;;;;6.70;3.23;;;10.50;99.90;;;;;;5078559;28;20457;-77
2022/09/27 06:28:22;;;;;;;6.20;3.50;;;10.60;99.90;;;;;;5078543;28;20470;-81
2022/09/27 06:30:50;;;;;;;4.43;2.90;;;10.60;99.90;;;;;;5078622;28;20465;-82
2022/09/27 06:33:20;;;;;;;5.30;2.87;;;10.60;99.90;;;;;;5077299;28;20474;-82
2022/09/27 06:35:48;;;;;;;6.67;3.20;;;10.60;99.90;;;;;;5080170;28;20532;-79
2022/09/27 06:38:18;;;;;;;5.50;2.80;;;10.60;99.90;;;;;;5080708;28;20706;-81
2022/09/27 06:40:48;;;;;;;6.73;2.70;;;10.50;99.90;;;;;;5081581;28;20461;-82
2022/09/27 06:43:18;;;;;;;6.33;2.93;;;10.60;99.90;;;;;;5079783;28;20481;-80
2022/09/27 06:45:49;;;;;;;5.17;2.63;;;10.70;99.90;;;;;;5081055;28;20512;-80
2022/09/27 06:48:17;;;;;;;8.83;2.50;;;10.70;99.90;;;;;;5075598;28;20483;-83
2022/09/27 06:50:46;;;;;;;6.30;2.07;;;10.70;99.90;;;;;;5072164;28;20972;-79
2022/09/27 06:53:15;;;;;;;4.00;1.70;;;10.60;99.90;;;;;;5074599;28;20970;-79
2022/09/27 06:55:42;;;;;;;7.00;2.13;;;10.60;99.90;;;;;;5074444;28;20453;-81
2022/09/27 07:00:57;;;;;;;5.93;2.03;;;10.50;99.90;;;;;;5069148;28;20985;-80
2022/09/27 07:03:30;;;;;;;3.67;1.57;;;10.50;99.90;;;;;;5067407;28;20479;-77
2022/09/27 07:05:59;;;;;;;4.03;1.60;;;10.60;99.90;;;;;;5069696;28;20486;-80
2022/09/27 07:08:27;;;;;;;8.60;1.60;;;10.60;99.90;;;;;;5067721;28;21128;-79
2022/09/27 07:11:02;;;;;;;2.30;1.27;;;10.70;99.90;;;;;;5068746;28;20939;-79
2022/09/27 07:13:30;;;;;;;4.60;1.73;;;10.70;99.90;;;;;;5067411;28;20450;-80
2022/09/27 07:15:58;;;;;;;4.17;2.67;;;10.70;99.90;;;;;;5069061;28;20451;-81
2022/09/27 07:18:25;;;;;;;4.87;1.93;;;10.60;99.90;;;;;;5069675;28;20505;-80
2022/09/27 07:20:53;;;;;;;2.70;1.90;;;10.70;99.90;;;;;;5069393;28;20447;-78
2022/09/27 07:23:20;;;;;;;5.10;1.60;;;10.70;99.90;;;;;;5066748;28;20456;-78
2022/09/27 07:25:47;;;;;;;3.90;1.30;;;10.70;99.90;;;;;;5066311;28;20485;-78
2022/09/27 07:28:15;;;;;;;3.97;1.30;;;10.80;99.90;;;;;;5067124;28;20548;-78
2022/09/27 07:30:43;;;;;;;4.13;1.77;;;10.90;99.90;;;;;;5063482;28;20547;-79
2022/09/27 07:33:11;;;;;;;3.83;1.33;;;11.00;99.90;;;;;;5074815;28;20465;-79
2022/09/27 07:35:39;;;;;;;5.57;2.03;;;10.90;99.90;;;;;;5074939;28;20507;-80
2022/09/27 07:38:08;;;;;;;4.87;1.70;;;10.90;99.90;;;;;;5073725;28;20474;-80
2022/09/27 07:40:36;;;;;;;3.90;1.90;;;10.80;99.90;;;;;;5070247;28;20471;-81
2022/09/27 07:43:04;;;;;;;5.33;2.43;;;10.70;99.90;;;;;;5074037;28;20488;-79
2022/09/27 07:45:32;;;;;;;2.83;1.73;;;10.80;99.90;;;;;;5076981;28;20869;-80
2022/09/27 07:47:58;;;;;;;5.73;2.63;;;10.80;99.90;;;;;;5076586;28;20558;-81
2022/09/27 07:50:27;;;;;;;4.17;1.90;;;10.70;99.90;;;;;;5075002;28;20476;-80
2022/09/27 07:52:55;;;;;;;4.10;1.77;;;10.80;99.90;;;;;;5072887;28;20458;-80
2022/09/27 07:55:22;;;;;;;4.90;1.43;;;10.80;99.90;;;;;;5099418;22;20528;-82
2022/09/27 07:57:50;;;;;;;8.10;2.10;;;10.70;99.90;;;;;;5084824;28;20457;-80
2022/09/27 08:00:19;;;;;;;4.07;2.07;;;10.80;99.90;;;;;;5087283;28;20458;-81
2022/09/27 08:02:46;;;;;;;6.20;1.53;;;10.80;99.90;;;;;;5081529;28;20517;-79
2022/09/27 08:05:14;;;;;;;2.83;1.57;;;11.00;99.90;;;;;;5079894;28;20483;-82
2022/09/27 08:07:43;;;;;;;2.87;1.53;;;11.00;99.90;;;;;;5068084;28;20962;-82
2022/09/27 08:10:10;;;;;;;5.07;1.77;;;11.00;99.90;;;;;;5074633;28;20451;-82
2022/09/27 08:12:37;;;;;;;4.80;1.97;;;10.90;99.90;;;;;;5070205;28;20462;-81
2022/09/27 08:15:06;;;;;;;3.47;1.50;;;10.90;99.90;;;;;;5068030;28;20473;-79
2022/09/27 08:17:33;;;;;;;4.83;1.70;;;11.00;99.90;;;;;;5067770;28;20485;-81
2022/09/27 08:20:03;;;;;;;2.40;1.33;;;11.10;99.90;;;;;;5067971;28;20482;-80
2022/09/27 08:22:30;;;;;;;5.23;3.30;;;11.10;99.90;;;;;;5067324;28;20464;-79
2022/09/27 08:24:58;;;;;;;4.07;1.40;;;11.10;99.90;;;;;;5066602;28;20491;-80
2022/09/27 08:27:25;;;;;;;4.17;2.00;;;11.10;99.90;;;;;;5063993;28;20483;-79
2022/09/27 08:29:52;;;;;;;3.00;1.53;;;11.00;99.90;;;;;;5068197;28;20452;-80
2022/09/27 08:32:19;;;;;;;2.50;1.40;;;11.10;99.90;;;;;;5066922;28;20451;-79
2022/09/27 08:34:46;;;;;;;4.00;2.20;;;11.20;99.90;;;;;;5066092;28;20463;-81
2022/09/27 08:37:13;;;;;;;3.90;2.03;;;11.20;99.90;;;;;;5068060;28;20464;-80
2022/09/27 08:42:28;;;;;;;8.43;2.20;;;11.30;99.90;;;;;;5744945;22;20945;-79
2022/09/27 08:45:02;;;;;;;2.63;1.73;;;11.50;99.90;;;;;;5077785;28;20541;-80
2022/09/27 08:50:18;;;;;;;3.20;2.07;;;11.50;99.90;;;;;;5177808;22;20554;-83
2022/09/27 08:52:48;;;;;;;5.07;2.10;;;11.50;99.90;;;;;;5078454;28;20451;-83
2022/09/27 08:55:22;;;;;;;2.63;1.73;;;11.50;99.90;;;;;;5095186;28;20469;-83
2022/09/27 08:57:53;;;;;;;4.70;2.27;;;11.30;99.90;;;;;;5095010;28;20481;-84
2022/09/27 09:00:20;;;;;;;3.83;2.23;;;11.40;99.90;;;;;;5074769;28;20475;-84
2022/09/27 09:02:48;;;;;;;3.97;2.03;;;11.40;99.90;;;;;;5087575;22;20511;-81
2022/09/27 09:05:23;;;;;;;2.53;1.50;;;11.30;99.90;;;;;;5050624;28;20527;-81
2022/09/27 09:08:11;;;;;;;3.20;1.60;;;11.10;99.90;;;;;;5042736;28;20917;-80
2022/09/27 09:14:02;;;;;;;7.00;2.53;;;11.30;99.90;;;;;;5038512;28;20472;-80
2022/09/27 09:16:38;;;;;;;4.43;1.73;;;11.30;99.90;;;;;;5038237;28;20471;-82
2022/09/27 09:19:21;;;;;;;4.93;1.93;;;11.20;99.90;;;;;;5037799;28;20444;-81
2022/09/27 09:21:59;;;;;;;3.47;1.43;;;11.20;99.90;;;;;;5038297;28;20507;-82
2022/09/27 09:24:40;;;;;;;3.13;1.47;;;11.30;99.90;;;;;;5038653;28;20580;-81
2022/09/27 09:27:15;;;;;;;3.43;1.50;;;11.20;99.90;;;;;;5038045;28;20492;-82
2022/09/27 09:30:04;;;;;;;2.73;1.37;;;11.20;99.90;;;;;;5037528;28;20468;-82
2022/09/27 09:32:39;;;;;;;3.30;1.27;;;11.20;99.90;;;;;;5038290;28;20475;-81
2022/09/27 09:35:13;;;;;;;2.73;1.37;;;11.10;99.90;;;;;;5022037;28;20453;-82
2022/09/27 09:37:45;;;;;;;3.20;1.37;;;11.20;99.90;;;;;;5022692;28;20437;-82
2022/09/27 09:40:22;;;;;;;4.07;1.40;;;11.10;99.90;;;;;;5021376;28;20434;-81
2022/09/27 09:42:57;;;;;;;5.90;1.63;;;11.20;99.90;;;;;;5019981;28;20462;-80
2022/09/27 09:45:30;;;;;;;2.20;1.70;;;11.20;99.90;;;;;;5032319;28;20489;-81
2022/09/27 09:48:03;;;;;;;4.80;1.57;;;11.20;99.90;;;;;;5018911;28;20469;-82
2022/09/27 09:50:35;;;;;;;3.10;2.30;;;11.30;99.90;;;;;;5021351;28;20445;-82
2022/09/27 09:53:11;;;;;;;3.77;2.00;;;11.40;99.90;;;;;;5033724;28;20484;-81
2022/09/27 09:55:41;;;;;;;3.07;1.90;;;11.40;99.90;;;;;;5038665;28;20947;-82
2022/09/27 09:58:21;;;;;;;2.37;2.00;;;11.30;99.90;;;;;;5038674;28;20518;-82
2022/09/27 10:00:53;;;;;;;3.37;2.07;;;11.30;99.90;;;;;;5037704;28;20452;-82
2022/09/27 10:03:21;;;;;;;2.70;1.90;;;11.30;99.90;;;;;;5036997;28;20484;-82
2022/09/27 10:05:48;;;;;;;5.20;2.43;;;11.20;99.90;;;;;;5043588;28;20543;-82
2022/09/27 10:08:19;;;;;;;3.90;2.40;;;11.20;99.90;;;;;;5048874;28;20519;-81
2022/09/27 10:10:46;;;;;;;3.10;2.00;;;11.30;99.90;;;;;;5036859;28;20487;-81
2022/09/27 10:13:17;;;;;;;3.00;2.20;;;11.30;99.90;;;;;;5034982;28;20532;-82
2022/09/27 10:15:55;;;;;;;3.93;2.20;;;11.30;99.90;;;;;;5035806;28;20455;-80
2022/09/27 10:18:25;;;;;;;2.13;1.60;;;11.30;99.90;;;;;;5036664;28;20437;-80
2022/09/27 10:20:56;;;;;;;4.40;1.90;;;11.20;99.90;;;;;;5036197;28;20825;-81
2022/09/27 10:23:25;;;;;;;2.17;1.63;;;11.30;99.90;;;;;;5036595;28;20492;-80
2022/09/27 10:25:56;;;;;;;3.20;2.07;;;11.20;99.90;;;;;;5037047;28;20485;-83
2022/09/27 10:28:36;;;;;;;3.50;1.93;;;11.40;99.90;;;;;;5036442;28;20467;-85
2022/09/27 10:31:09;;;;;;;1.97;1.40;;;11.40;99.90;;;;;;5036968;28;20511;-82
2022/09/27 10:33:39;;;;;;;3.20;2.00;;;11.50;99.90;;;;;;5036653;28;20477;-82
2022/09/27 10:36:23;;;;;;;3.47;1.80;;;11.50;99.90;;;;;;5036999;28;20523;-83
2022/09/27 10:38:53;;;;;;;19.47;3.10;;;11.50;99.90;;;;;;5037691;28;20460;-84
2022/09/27 10:41:25;;;;;;;3.10;2.23;;;11.50;99.90;;;;;;5037972;28;20524;-83
2022/09/27 10:43:52;;;;;;;3.00;1.90;;;11.60;99.90;;;;;;5038439;28;20484;-83
2022/09/27 10:46:26;;;;;;;5.10;2.30;;;11.50;99.90;;;;;;5034798;28;20523;-82
2022/09/27 10:49:09;;;;;;;4.00;2.17;;;11.50;99.90;;;;;;5028676;28;20461;-83
2022/09/27 10:51:37;;;;;;;4.77;2.67;;;11.50;99.90;;;;;;5022013;28;20456;-83
2022/09/27 10:54:04;;;;;;;3.97;3.37;;;11.50;99.90;;;;;;5037489;28;20497;-83
2022/09/27 10:56:33;;;;;;;3.20;2.50;;;11.50;99.90;;;;;;5036883;28;20488;-82
2022/09/27 10:59:02;;;;;;;6.53;2.80;;;11.60;99.90;;;;;;5042887;28;20461;-83
2022/09/27 11:01:44;;;;;;;4.33;3.30;;;11.70;99.90;;;;;;5043089;28;20507;-82
2022/09/27 11:04:19;;;;;;;4.77;3.40;;;11.70;99.90;;;;;;5042293;28;20571;-82
2022/09/27 11:06:46;;;;;;;4.87;3.57;;;11.70;99.90;;;;;;5042309;28;20494;-83
2022/09/27 11:09:23;;;;;;;8.83;3.60;;;11.80;99.90;;;;;;5042512;28;20898;-79
2022/09/27 11:11:50;;;;;;;5.30;4.50;;;11.90;99.90;;;;;;5041983;28;20510;-81
2022/09/27 11:14:22;;;;;;;4.10;3.00;;;12.10;99.90;;;;;;5043074;28;20515;-82
2022/09/27 11:17:07;;;;;;;3.37;3.07;;;12.20;99.90;;;;;;5040454;28;20491;-83
2022/09/27 11:19:56;;;;;;;3.10;2.80;;;12.30;99.90;;;;;;5040320;28;20453;-80
2022/09/27 11:22:42;;;;;;;5.50;3.73;;;12.30;99.90;;;;;;5045206;28;20475;-82
2022/09/27 11:25:20;;;;;;;3.23;2.93;;;12.20;99.90;;;;;;5055548;28;20545;-81
2022/09/27 11:28:00;;;;;;;3.20;2.10;;;12.10;99.90;;;;;;5046723;28;20451;-81
2022/09/27 11:30:36;;;;;;;2.43;1.80;;;12.10;99.90;;;;;;5054904;28;20452;-82
2022/09/27 11:33:27;;;;;;;3.43;2.10;;;12.20;99.90;;;;;;5054134;28;20463;-82
2022/09/27 11:36:03;;;;;;;2.20;1.67;;;12.20;99.90;;;;;;5034476;28;20450;-83
2022/09/27 11:38:32;;;;;;;3.40;1.63;;;12.30;99.90;;;;;;5028205;28;20461;-80
2022/09/27 11:41:19;;;;;;;6.53;2.77;;;12.10;99.90;;;;;;5051727;28;20460;-82
2022/09/27 11:44:01;;;;;;;4.40;1.63;;;12.30;99.90;;;;;;5043846;28;20530;-82
2022/09/27 11:46:33;;;;;;;3.17;1.23;;;12.40;99.90;;;;;;5042284;28;20577;-82
2022/09/27 11:49:27;;;;;;;4.07;1.67;;;12.40;99.90;;;;;;5043108;28;20437;-82
2022/09/27 11:52:17;;;;;;;2.00;1.53;;;12.40;99.90;;;;;;5013525;28;20835;-81
2022/09/27 11:55:09;;;;;;;2.60;1.60;;;12.30;99.90;;;;;;5026668;28;20463;-81
2022/09/27 11:57:41;;;;;;;2.83;1.30;;;12.20;99.90;;;;;;5042265;28;20455;-81
2022/09/27 12:00:18;;;;;;;2.87;1.47;;;12.10;99.90;;;;;;5042802;28;20901;-81
2022/09/27 12:03:25;;;;;;;2.80;1.50;;;12.10;99.90;;;;;;5041320;28;21000;-82
2022/09/27 12:06:02;;;;;;;2.00;1.40;;;12.10;99.90;;;;;;5041164;28;20503;-81
2022/09/27 12:08:44;;;;;;;3.50;1.53;;;12.00;99.90;;;;;;5041202;28;20455;-81
2022/09/27 12:11:18;;;;;;;4.83;1.80;;;12.00;99.90;;;;;;5041076;28;20437;-81
2022/09/27 12:13:49;;;;;;;2.97;1.53;;;12.00;99.90;;;;;;5041103;28;20562;-81
2022/09/27 12:16:19;;;;;;;3.47;1.73;;;12.00;99.90;;;;;;5041678;28;20456;-81
2022/09/27 12:18:48;;;;;;;2.60;1.90;;;12.00;99.90;;;;;;5039903;28;20481;-82
2022/09/27 12:21:17;;;;;;;3.60;2.17;;;12.10;99.90;;;;;;5041215;28;20472;-80
2022/09/27 12:23:47;;;;;;;3.27;2.40;;;12.20;99.90;;;;;;5041411;28;20477;-81
2022/09/27 12:26:18;;;;;;;3.17;2.07;;;12.40;99.90;;;;;;5041416;28;20486;-81
2022/09/27 12:28:50;;;;;;;5.23;1.63;;;12.50;99.90;;;;;;5040628;28;21123;-81
2022/09/27 12:31:23;;;;;;;5.40;2.20;;;12.50;99.90;;;;;;5040294;28;20458;-81
2022/09/27 12:34:00;;;;;;;3.60;2.40;;;12.50;99.90;;;;;;5036601;28;20475;-81
2022/09/27 12:36:34;;;;;;;6.43;2.60;;;12.40;99.90;;;;;;5050814;28;20850;-81
2022/09/27 12:39:07;;;;;;;4.30;2.03;;;12.20;99.90;;;;;;5039134;28;20452;-81
2022/09/27 12:41:38;;;;;;;2.50;1.80;;;12.30;99.90;;;;;;5034067;28;20944;-80
2022/09/27 12:44:05;;;;;;;7.70;2.00;;;12.30;99.90;;;;;;5033062;28;20485;-81
2022/09/27 12:46:46;;;;;;;4.57;3.00;;;12.00;99.90;;;;;;5036037;28;20483;-81
2022/09/27 12:49:24;;;;;;;3.90;2.40;;;12.10;99.90;;;;;;5023662;28;20544;-83
2022/09/27 12:51:58;;;;;;;3.43;3.10;;;12.10;99.90;;;;;;5021670;28;20921;-79
2022/09/27 12:54:49;;;;;;;3.10;1.87;;;12.10;99.90;;;;;;5032049;28;20445;-80
2022/09/27 12:57:28;;;;;;;5.17;2.77;;;12.10;99.90;;;;;;5028129;28;20468;-81
2022/09/27 13:00:11;;;;;;;6.20;3.20;;;12.10;99.90;;;;;;5031420;28;20513;-81
2022/09/27 13:03:31;;;;;;;4.13;2.33;;;12.00;99.90;;;;;;5032488;28;20510;-81
2022/09/27 13:06:48;;;;;;;5.00;2.47;;;12.00;99.90;;;;;;5004917;28;20486;-81
2022/09/27 13:09:47;;;;;;;3.80;2.33;;;12.00;99.90;;;;;;4987474;28;20469;-82
2022/09/27 13:12:16;;;;;;;4.00;2.30;;;11.80;99.90;;;;;;4991823;28;20601;-82
2022/09/27 13:14:57;;;;;;;3.40;2.63;;;11.80;99.90;;;;;;5027897;28;20455;-83
2022/09/27 13:17:47;;;;;;;4.57;3.23;;;11.70;99.90;;;;;;5040426;28;20425;-82
2022/09/27 13:20:41;;;;;;;3.93;3.53;;;11.80;99.90;;;;;;5039656;28;20879;-82
2022/09/27 13:23:41;;;;;;;4.40;3.50;;;12.00;99.90;;;;;;5040013;28;20472;-82